createdAt,value
2022-09-07T00:00:01.976Z,1018.9
2022-09-07T00:01:02.754Z,1019
2022-09-07T00:02:02.663Z,1018.9
2022-09-07T00:03:02.773Z,1019
2022-09-07T00:04:02.933Z,1019
2022-09-07T00:05:02.768Z,1019
2022-09-07T00:06:02.691Z,1019
2022-09-07T00:07:02.525Z,1019
2022-09-07T00:08:02.419Z,1019
2022-09-07T00:09:02.266Z,1019
2022-09-07T00:10:02.095Z,1019
2022-09-07T00:11:01.928Z,1019
2022-09-07T00:12:02.826Z,1019
2022-09-07T00:13:02.654Z,1019.1
2022-09-07T00:14:02.582Z,1019
2022-09-07T00:15:02.490Z,1019
2022-09-07T00:16:02.520Z,1019
2022-09-07T00:17:02.441Z,1019
2022-09-07T00:18:02.319Z,1018.9
2022-09-07T00:19:02.150Z,1018.9
2022-09-07T00:20:02.075Z,1018.9
2022-09-07T00:21:01.877Z,1018.9
2022-09-07T00:22:02.782Z,1018.9
2022-09-07T00:23:02.600Z,1018.9
2022-09-07T00:24:02.492Z,1018.9
2022-09-07T00:25:02.344Z,1018.9
2022-09-07T00:26:02.159Z,1018.8
2022-09-07T00:27:02.085Z,1018.9
2022-09-07T00:28:01.878Z,1019
2022-09-07T00:29:02.783Z,1019
2022-09-07T00:30:02.613Z,1019
2022-09-07T00:31:02.906Z,1019
2022-09-07T00:32:02.833Z,1019
2022-09-07T00:33:02.650Z,1019
2022-09-07T00:34:02.611Z,1019
2022-09-07T00:35:02.462Z,1019
2022-09-07T00:36:02.281Z,1019
2022-09-07T00:37:02.200Z,1019
2022-09-07T00:38:02.036Z,1019
2022-09-07T00:39:01.912Z,1019.1
2022-09-07T00:40:03.228Z,1019.1
2022-09-07T00:41:02.099Z,1019
2022-09-07T00:42:02.142Z,1019.1
2022-09-07T00:43:01.927Z,1019.1
2022-09-07T00:44:02.820Z,1019.1
2022-09-07T00:45:02.646Z,1019.1
2022-09-07T00:46:02.765Z,1019.2
2022-09-07T00:47:02.697Z,1019.1
2022-09-07T00:48:02.514Z,1019.1
2022-09-07T00:49:02.432Z,1019.1
2022-09-07T00:50:02.299Z,1019.1
2022-09-07T00:51:02.100Z,1019.2
2022-09-07T00:52:02.008Z,1019.1
2022-09-07T00:53:01.817Z,1019.1
2022-09-07T00:54:02.757Z,1019.2
2022-09-07T00:55:02.619Z,1019.2
2022-09-07T00:56:02.510Z,1019.1
2022-09-07T00:57:02.345Z,1019.1
2022-09-07T00:58:02.194Z,1019.1
2022-09-07T00:59:02.082Z,1019.1
2022-09-07T01:00:01.886Z,1019.1
2022-09-07T01:01:02.598Z,1019.2
2022-09-07T01:02:03.019Z,1019.1
2022-09-07T01:03:02.456Z,1019.2
2022-09-07T01:04:02.485Z,1019.1
2022-09-07T01:05:09.761Z,1019.1
2022-09-07T01:06:02.710Z,1019
2022-09-07T01:07:02.490Z,1019.1
2022-09-07T01:08:02.413Z,1019.1
2022-09-07T01:09:02.269Z,1019.1
2022-09-07T01:10:02.032Z,1019.1
2022-09-07T01:11:01.946Z,1019
2022-09-07T01:12:02.798Z,1019
2022-09-07T01:13:02.598Z,1019.1
2022-09-07T01:14:02.536Z,1019
2022-09-07T01:15:02.409Z,1019.1
2022-09-07T01:16:02.280Z,1019.1
2022-09-07T01:17:02.195Z,1019.1
2022-09-07T01:18:02.033Z,1019.1
2022-09-07T01:19:01.890Z,1019.2
2022-09-07T01:20:02.752Z,1019.2
2022-09-07T01:21:02.578Z,1019.2
2022-09-07T01:22:02.466Z,1019.2
2022-09-07T01:23:02.345Z,1019.2
2022-09-07T01:24:02.132Z,1019.2
2022-09-07T01:25:02.017Z,1019.2
2022-09-07T01:26:01.839Z,1019.2
2022-09-07T01:27:02.778Z,1019.1
2022-09-07T01:28:02.587Z,1019.2
2022-09-07T01:29:02.642Z,1019.1
2022-09-07T01:30:02.544Z,1019.2
2022-09-07T01:31:02.658Z,1019.1
2022-09-07T01:32:02.586Z,1019.1
2022-09-07T01:33:02.450Z,1019.1
2022-09-07T01:34:02.293Z,1019
2022-09-07T01:35:02.140Z,1019.1
2022-09-07T01:36:01.929Z,1019
2022-09-07T01:37:01.911Z,1019
2022-09-07T01:38:02.824Z,1019
2022-09-07T01:39:02.659Z,1019
2022-09-07T01:40:03.172Z,1018.9
2022-09-07T01:41:02.029Z,1018.9
2022-09-07T01:42:01.937Z,1018.9
2022-09-07T01:43:02.818Z,1018.9
2022-09-07T01:44:02.630Z,1018.9
2022-09-07T01:45:02.656Z,1018.9
2022-09-07T01:46:02.474Z,1018.9
2022-09-07T01:47:02.421Z,1018.9
2022-09-07T01:48:02.340Z,1018.9
2022-09-07T01:49:02.158Z,1018.9
2022-09-07T01:50:02.125Z,1018.9
2022-09-07T01:51:01.914Z,1018.9
2022-09-07T01:52:02.883Z,1018.9
2022-09-07T01:53:02.702Z,1018.8
2022-09-07T01:54:02.623Z,1018.9
2022-09-07T01:55:02.440Z,1018.8
2022-09-07T01:56:02.441Z,1018.8
2022-09-07T01:57:02.355Z,1018.8
2022-09-07T01:58:02.148Z,1018.8
2022-09-07T01:59:02.109Z,1018.8
2022-09-07T02:00:01.906Z,1018.9
2022-09-07T02:01:01.865Z,1018.9
2022-09-07T02:02:03.061Z,1018.8
2022-09-07T02:03:02.090Z,1018.8
2022-09-07T02:04:02.001Z,1018.8
2022-09-07T02:05:01.778Z,1018.8
2022-09-07T02:06:02.775Z,1018.8
2022-09-07T02:07:02.589Z,1018.8
2022-09-07T02:08:02.559Z,1018.8
2022-09-07T02:09:02.485Z,1018.8
2022-09-07T02:10:02.272Z,1018.8
2022-09-07T02:11:02.240Z,1018.7
2022-09-07T02:12:02.046Z,1018.7
2022-09-07T02:13:01.996Z,1018.7
2022-09-07T02:14:01.838Z,1018.7
2022-09-07T02:15:02.961Z,1018.7
2022-09-07T02:16:02.571Z,1018.7
2022-09-07T02:17:02.520Z,1018.7
2022-09-07T02:18:02.410Z,1018.7
2022-09-07T02:19:02.267Z,1018.6
2022-09-07T02:20:02.197Z,1018.7
2022-09-07T02:21:02.006Z,1018.7
2022-09-07T02:22:01.955Z,1018.7
2022-09-07T02:23:02.899Z,1018.7
2022-09-07T02:24:02.706Z,1018.6
2022-09-07T02:25:02.693Z,1018.7
2022-09-07T02:26:02.488Z,1018.7
2022-09-07T02:27:02.459Z,1018.7
2022-09-07T02:28:02.394Z,1018.6
2022-09-07T02:29:02.184Z,1018.6
2022-09-07T02:30:02.175Z,1018.6
2022-09-07T02:31:03.118Z,1018.6
2022-09-07T02:32:01.979Z,1018.6
2022-09-07T02:33:01.909Z,1018.6
2022-09-07T02:34:02.779Z,1018.6
2022-09-07T02:35:02.604Z,1018.7
2022-09-07T02:36:02.588Z,1018.6
2022-09-07T02:37:02.507Z,1018.6
2022-09-07T02:38:02.306Z,1018.7
2022-09-07T02:39:02.286Z,1018.6
2022-09-07T02:40:02.425Z,1018.6
2022-09-07T02:41:02.393Z,1018.6
2022-09-07T02:42:02.214Z,1018.6
2022-09-07T02:43:02.125Z,1018.6
2022-09-07T02:44:02.068Z,1018.6
2022-09-07T02:45:01.872Z,1018.6
2022-09-07T02:46:02.055Z,1018.6
2022-09-07T02:47:01.992Z,1018.6
2022-09-07T02:48:01.818Z,1018.6
2022-09-07T02:49:02.730Z,1018.6
2022-09-07T02:50:02.550Z,1018.6
2022-09-07T02:51:02.523Z,1018.6
2022-09-07T02:52:02.443Z,1018.5
2022-09-07T02:53:02.265Z,1018.5
2022-09-07T02:54:02.184Z,1018.5
2022-09-07T02:55:01.970Z,1018.6
2022-09-07T02:56:01.902Z,1018.5
2022-09-07T02:57:02.833Z,1018.5
2022-09-07T02:58:02.666Z,1018.5
2022-09-07T02:59:02.602Z,1018.5
2022-09-07T03:00:02.529Z,1018.5
2022-09-07T03:01:02.490Z,1018.5
2022-09-07T03:02:02.440Z,1018.5
2022-09-07T03:03:02.466Z,1018.5
2022-09-07T03:04:02.290Z,1018.5
2022-09-07T03:05:02.251Z,1018.6
2022-09-07T03:06:02.040Z,1018.6
2022-09-07T03:07:01.980Z,1018.6
2022-09-07T03:08:01.815Z,1018.6
2022-09-07T03:09:02.778Z,1018.6
2022-09-07T03:10:02.591Z,1018.5
2022-09-07T03:11:02.573Z,1018.5
2022-09-07T03:12:02.488Z,1018.5
2022-09-07T03:13:02.299Z,1018.5
2022-09-07T03:14:02.278Z,1018.5
2022-09-07T03:15:02.098Z,1018.5
2022-09-07T03:16:02.666Z,1018.5
2022-09-07T03:17:02.650Z,1018.5
2022-09-07T03:18:02.470Z,1018.4
2022-09-07T03:19:02.471Z,1018.4
2022-09-07T03:20:02.425Z,1018.4
2022-09-07T03:21:02.232Z,1018.4
2022-09-07T03:22:02.203Z,1018.5
2022-09-07T03:23:01.981Z,1018.5
2022-09-07T03:24:01.881Z,1018.5
2022-09-07T03:25:02.803Z,1018.5
2022-09-07T03:26:02.622Z,1018.5
2022-09-07T03:27:02.570Z,1018.5
2022-09-07T03:28:02.502Z,1018.5
2022-09-07T03:29:02.314Z,1018.6
2022-09-07T03:30:02.282Z,1018.5
2022-09-07T03:31:02.572Z,1018.5
2022-09-07T03:32:02.441Z,1018.5
2022-09-07T03:33:02.364Z,1018.5
2022-09-07T03:34:02.138Z,1018.4
2022-09-07T03:35:02.085Z,1018.5
2022-09-07T03:36:01.876Z,1018.4
2022-09-07T03:37:02.896Z,1018.4
2022-09-07T03:38:01.830Z,1018.4
2022-09-07T03:39:02.774Z,1018.4
2022-09-07T03:40:02.850Z,1018.4
2022-09-07T03:41:02.806Z,1018.4
2022-09-07T03:42:02.625Z,1018.4
2022-09-07T03:43:02.606Z,1018.4
2022-09-07T03:44:02.539Z,1018.4
2022-09-07T03:45:02.382Z,1018.4
2022-09-07T03:46:02.725Z,1018.5
2022-09-07T03:47:02.685Z,1018.5
2022-09-07T03:48:02.513Z,1018.5
2022-09-07T03:49:02.444Z,1018.6
2022-09-07T03:50:02.356Z,1018.5
2022-09-07T03:51:02.167Z,1018.6
2022-09-07T03:52:02.111Z,1018.6
2022-09-07T03:53:01.899Z,1018.5
2022-09-07T03:54:02.856Z,1018.5
2022-09-07T03:55:02.677Z,1018.5
2022-09-07T03:56:02.667Z,1018.5
2022-09-07T03:57:02.565Z,1018.5
2022-09-07T03:58:02.375Z,1018.5
2022-09-07T03:59:02.371Z,1018.5
2022-09-07T04:00:02.275Z,1018.5
2022-09-07T04:01:02.490Z,1018.5
2022-09-07T04:02:02.710Z,1018.5
2022-09-07T04:03:02.644Z,1018.5
2022-09-07T04:04:03.142Z,1018.5
2022-09-07T04:05:02.026Z,1018.5
2022-09-07T04:06:01.850Z,1018.5
2022-09-07T04:07:02.809Z,1018.5
2022-09-07T04:08:02.656Z,1018.5
2022-09-07T04:09:02.582Z,1018.5
2022-09-07T04:10:02.501Z,1018.6
2022-09-07T04:11:02.404Z,1018.6
2022-09-07T04:12:02.234Z,1018.6
2022-09-07T04:13:02.067Z,1018.6
2022-09-07T04:14:01.968Z,1018.5
2022-09-07T04:15:01.745Z,1018.6
2022-09-07T04:16:01.834Z,1018.5
2022-09-07T04:17:03.141Z,1018.5
2022-09-07T04:18:01.990Z,1018.5
2022-09-07T04:19:01.986Z,1018.6
2022-09-07T04:20:01.837Z,1018.5
2022-09-07T04:21:02.808Z,1018.5
2022-09-07T04:22:02.674Z,1018.5
2022-09-07T04:23:02.594Z,1018.5
2022-09-07T04:24:02.520Z,1018.5
2022-09-07T04:25:02.396Z,1018.5
2022-09-07T04:26:02.342Z,1018.5
2022-09-07T04:27:02.117Z,1018.4
2022-09-07T04:28:02.078Z,1018.5
2022-09-07T04:29:01.887Z,1018.5
2022-09-07T04:30:02.837Z,1018.4
2022-09-07T04:31:02.952Z,1018.5
2022-09-07T04:32:01.881Z,1018.5
2022-09-07T04:33:02.806Z,1018.5
2022-09-07T04:34:02.636Z,1018.5
2022-09-07T04:35:02.523Z,1018.5
2022-09-07T04:36:02.439Z,1018.5
2022-09-07T04:37:02.250Z,1018.5
2022-09-07T04:38:02.206Z,1018.5
2022-09-07T04:39:02.055Z,1018.5
2022-09-07T04:40:02.151Z,1018.5
2022-09-07T04:41:01.969Z,1018.5
2022-09-07T04:42:01.929Z,1018.6
2022-09-07T04:43:02.849Z,1018.6
2022-09-07T04:44:02.666Z,1018.6
2022-09-07T04:45:02.594Z,1018.6
2022-09-07T04:46:02.974Z,1018.6
2022-09-07T04:47:01.836Z,1018.6
2022-09-07T04:48:02.770Z,1018.6
2022-09-07T04:49:02.144Z,1018.7
2022-09-07T04:50:02.103Z,1018.7
2022-09-07T04:51:06.307Z,1018.7
2022-09-07T04:52:02.129Z,1018.7
2022-09-07T04:53:02.077Z,1018.7
2022-09-07T04:54:01.833Z,1018.7
2022-09-07T04:55:02.838Z,1018.7
2022-09-07T04:56:02.678Z,1018.7
2022-09-07T04:57:02.667Z,1018.6
2022-09-07T04:58:02.492Z,1018.6
2022-09-07T04:59:02.466Z,1018.7
2022-09-07T05:00:02.356Z,1018.7
2022-09-07T05:01:02.468Z,1018.6
2022-09-07T05:02:02.523Z,1018.7
2022-09-07T05:03:02.468Z,1018.7
2022-09-07T05:04:02.287Z,1018.6
2022-09-07T05:05:03.497Z,1018.6
2022-09-07T05:06:02.433Z,1018.6
2022-09-07T05:07:02.352Z,1018.6
2022-09-07T05:08:02.277Z,1018.6
2022-09-07T05:09:02.094Z,1018.6
2022-09-07T05:10:02.064Z,1018.6
2022-09-07T05:11:01.858Z,1018.5
2022-09-07T05:12:02.815Z,1018.7
2022-09-07T05:13:02.731Z,1018.6
2022-09-07T05:14:02.573Z,1018.6
2022-09-07T05:15:02.513Z,1018.6
2022-09-07T05:16:02.378Z,1018.6
2022-09-07T05:17:02.593Z,1018.6
2022-09-07T05:18:02.551Z,1018.6
2022-09-07T05:19:02.421Z,1018.6
2022-09-07T05:20:02.333Z,1018.6
2022-09-07T05:21:02.156Z,1018.6
2022-09-07T05:22:02.097Z,1018.6
2022-09-07T05:23:01.881Z,1018.6
2022-09-07T05:24:02.843Z,1018.6
2022-09-07T05:25:02.683Z,1018.7
2022-09-07T05:26:02.630Z,1018.7
2022-09-07T05:27:02.540Z,1018.7
2022-09-07T05:28:02.330Z,1018.7
2022-09-07T05:30:04.221Z,1018.7
2022-09-07T05:30:05.945Z,1018.7
2022-09-07T05:31:20.382Z,1018.7
2022-09-07T05:32:02.573Z,1018.6
2022-09-07T05:33:02.536Z,1018.8
2022-09-07T05:34:33.401Z,1018.7
2022-09-07T05:35:02.391Z,1018.7
2022-09-07T05:36:02.399Z,1018.7
2022-09-07T05:37:02.341Z,1018.7
2022-09-07T05:38:02.157Z,1018.7
2022-09-07T05:39:02.114Z,1018.7
2022-09-07T05:40:02.342Z,1018.7
2022-09-07T05:41:02.238Z,1018.8
2022-09-07T05:42:02.151Z,1018.7
2022-09-07T05:43:01.971Z,1018.7
2022-09-07T05:44:46.830Z,1018.8
2022-09-07T05:45:02.729Z,1018.7
2022-09-07T05:46:02.551Z,1018.7
2022-09-07T05:47:02.583Z,1018.7
2022-09-07T05:48:02.574Z,1018.7
2022-09-07T05:49:02.425Z,1018.7
2022-09-07T05:50:02.392Z,1018.7
2022-09-07T05:51:02.301Z,1018.7
2022-09-07T05:52:02.115Z,1018.6
2022-09-07T05:53:02.032Z,1018.6
2022-09-07T05:54:01.844Z,1018.6
2022-09-07T05:55:30.921Z,1018.7
2022-09-07T05:56:07.609Z,1018.7
2022-09-07T05:57:02.415Z,1018.6
2022-09-07T05:58:02.369Z,1018.6
2022-09-07T05:59:02.166Z,1018.6
2022-09-07T06:00:02.117Z,1018.6
2022-09-07T06:01:01.820Z,1018.6
2022-09-07T06:02:03.242Z,1018.6
2022-09-07T06:03:02.578Z,1018.6
2022-09-07T06:04:02.696Z,1018.6
2022-09-07T06:05:02.525Z,1018.6
2022-09-07T06:06:02.464Z,1018.7
2022-09-07T06:07:23.723Z,1018.6
2022-09-07T06:08:02.607Z,1018.7
2022-09-07T06:09:02.559Z,1018.7
2022-09-07T06:10:46.269Z,1018.6
2022-09-07T06:11:02.089Z,1018.7
2022-09-07T06:12:02.043Z,1018.7
2022-09-07T06:13:01.908Z,1018.6
2022-09-07T06:14:02.832Z,1018.6
2022-09-07T06:15:02.646Z,1018.7
2022-09-07T06:16:02.714Z,1018.6
2022-09-07T06:17:02.671Z,1018.6
2022-09-07T06:18:02.579Z,1018.5
2022-09-07T06:19:02.435Z,1018.5
2022-09-07T06:20:02.357Z,1018.6
2022-09-07T06:21:02.219Z,1018.6
2022-09-07T06:22:02.139Z,1018.5
2022-09-07T06:23:01.899Z,1018.5
2022-09-07T06:24:01.911Z,1018.5
2022-09-07T06:25:02.849Z,1018.5
2022-09-07T06:26:02.659Z,1018.6
2022-09-07T06:27:02.622Z,1018.6
2022-09-07T06:28:02.561Z,1018.6
2022-09-07T06:29:02.485Z,1018.5
2022-09-07T06:30:02.306Z,1018.5
2022-09-07T06:31:02.030Z,1018.5
2022-09-07T06:32:46.215Z,1018.4
2022-09-07T06:33:02.093Z,1018.6
2022-09-07T06:34:02.019Z,1018.5
2022-09-07T06:35:01.841Z,1018.5
2022-09-07T06:36:02.844Z,1018.5
2022-09-07T06:37:02.677Z,1018.5
2022-09-07T06:38:02.617Z,1018.5
2022-09-07T06:39:02.538Z,1018.5
2022-09-07T06:40:02.542Z,1018.5
2022-09-07T06:41:59.913Z,1018.5
2022-09-07T06:42:02.881Z,1018.4
2022-09-07T06:43:02.706Z,1018.5
2022-09-07T06:44:02.668Z,1018.4
2022-09-07T06:45:02.546Z,1018.5
2022-09-07T06:47:02.580Z,1018.4
2022-09-07T06:47:03.110Z,1018.4
2022-09-07T06:48:02.501Z,1018.4
2022-09-07T06:49:02.525Z,1018.4
2022-09-07T06:50:02.347Z,1018.5
2022-09-07T06:51:02.288Z,1018.5
2022-09-07T06:52:02.088Z,1018.5
2022-09-07T06:55:00.773Z,1018.5
2022-09-07T06:55:02.362Z,1018.5
2022-09-07T06:56:02.337Z,1018.5
2022-09-07T06:57:02.126Z,1018.5
2022-09-07T06:58:02.054Z,1018.5
2022-09-07T06:59:01.840Z,1018.5
2022-09-07T07:00:02.855Z,1018.5
2022-09-07T07:01:02.230Z,1018.5
2022-09-07T07:02:02.143Z,1018.5
2022-09-07T07:03:02.107Z,1018.4
2022-09-07T07:04:02.019Z,1018.4
2022-09-07T07:05:01.804Z,1018.4
2022-09-07T07:06:02.784Z,1018.4
2022-09-07T07:07:02.702Z,1018.3
2022-09-07T07:08:02.568Z,1018.4
2022-09-07T07:09:02.527Z,1018.4
2022-09-07T07:10:02.344Z,1018.4
2022-09-07T07:11:02.248Z,1018.4
2022-09-07T07:12:02.039Z,1018.4
2022-09-07T07:13:01.980Z,1018.4
2022-09-07T07:14:01.795Z,1018.4
2022-09-07T07:15:02.775Z,1018.4
2022-09-07T07:16:02.657Z,1018.4
2022-09-07T07:17:02.583Z,1018.5
2022-09-07T07:18:21.695Z,1018.5
2022-09-07T07:19:02.504Z,1018.5
2022-09-07T07:20:02.544Z,1018.5
2022-09-07T07:21:02.448Z,1018.5
2022-09-07T07:22:47.203Z,1018.5
2022-09-07T07:23:02.091Z,1018.5
2022-09-07T07:24:08.606Z,1018.5
2022-09-07T07:25:02.521Z,1018.5
2022-09-07T07:26:02.317Z,1018.5
2022-09-07T07:27:02.257Z,1018.4
2022-09-07T07:29:03.691Z,1018.5
2022-09-07T07:29:04.820Z,1018.4
2022-09-07T07:30:02.910Z,1018.4
2022-09-07T07:31:13.267Z,1018.4
2022-09-07T07:32:02.162Z,1018.5
2022-09-07T07:33:02.485Z,1018.5
2022-09-07T07:34:02.632Z,1018.4
2022-09-07T07:35:02.643Z,1018.5
2022-09-07T07:36:02.553Z,1018.5
2022-09-07T07:37:02.500Z,1018.5
2022-09-07T07:39:01.625Z,1018.6
2022-09-07T07:39:03.940Z,1018.6
2022-09-07T07:40:27.778Z,1018.6
2022-09-07T07:42:02.973Z,1018.6
2022-09-07T07:42:06.361Z,1018.5
2022-09-07T07:43:02.212Z,1018.6
2022-09-07T07:44:02.072Z,1018.6
2022-09-07T07:45:55.913Z,1018.5
2022-09-07T07:46:06.896Z,1018.6
2022-09-07T07:47:02.061Z,1018.6
2022-09-07T07:48:01.884Z,1018.6
2022-09-07T07:49:02.752Z,1018.5
2022-09-07T07:50:34.701Z,1018.6
2022-09-07T07:51:12.450Z,1018.6
2022-09-07T07:53:42.203Z,1018.6
2022-09-07T07:53:53.621Z,1018.5
2022-09-07T07:54:02.541Z,1018.6
2022-09-07T07:55:43.925Z,1018.6
2022-09-07T07:56:01.904Z,1018.6
2022-09-07T07:57:02.797Z,1018.5
2022-09-07T07:58:02.625Z,1018.6
2022-09-07T07:59:02.486Z,1018.6
2022-09-07T08:00:02.332Z,1018.5
2022-09-07T08:01:02.801Z,1018.6
2022-09-07T08:02:03.143Z,1018.6
2022-09-07T08:03:01.942Z,1018.6
2022-09-07T08:04:01.812Z,1018.6
2022-09-07T08:05:02.785Z,1018.6
2022-09-07T08:06:02.620Z,1018.6
2022-09-07T08:07:11.422Z,1018.5
2022-09-07T08:08:02.315Z,1018.5
2022-09-07T08:09:02.136Z,1018.5
2022-09-07T08:10:01.894Z,1018.5
2022-09-07T08:11:01.843Z,1018.5
2022-09-07T08:12:02.731Z,1018.5
2022-09-07T08:13:02.590Z,1018.5
2022-09-07T08:14:02.547Z,1018.5
2022-09-07T08:15:02.527Z,1018.5
2022-09-07T08:16:02.457Z,1018.6
2022-09-07T08:17:02.290Z,1018.5
2022-09-07T08:18:02.158Z,1018.4
2022-09-07T08:19:01.953Z,1018.4
2022-09-07T08:20:01.875Z,1018.5
2022-09-07T08:21:02.794Z,1018.5
2022-09-07T08:22:02.588Z,1018.4
2022-09-07T08:23:02.438Z,1018.5
2022-09-07T08:24:02.325Z,1018.5
2022-09-07T08:25:02.413Z,1018.5
2022-09-07T08:26:02.276Z,1018.5
2022-09-07T08:27:02.085Z,1018.5
2022-09-07T08:28:01.898Z,1018.5
2022-09-07T08:29:02.788Z,1018.5
2022-09-07T08:30:02.608Z,1018.5
2022-09-07T08:31:02.460Z,1018.5
2022-09-07T08:32:02.598Z,1018.4
2022-09-07T08:33:02.405Z,1018.5
2022-09-07T08:34:02.292Z,1018.4
2022-09-07T08:35:02.216Z,1018.5
2022-09-07T08:36:02.041Z,1018.5
2022-09-07T08:37:02.941Z,1018.5
2022-09-07T08:38:02.753Z,1018.5
2022-09-07T08:39:02.648Z,1018.4
2022-09-07T08:40:02.758Z,1018.4
2022-09-07T08:41:02.654Z,1018.4
2022-09-07T08:42:02.463Z,1018.5
2022-09-07T08:43:02.340Z,1018.4
2022-09-07T08:44:02.243Z,1018.4
2022-09-07T08:45:02.243Z,1018.4
2022-09-07T08:46:02.790Z,1018.4
2022-09-07T08:47:02.846Z,1018.4
2022-09-07T08:48:02.740Z,1018.4
2022-09-07T08:49:02.569Z,1018.4
2022-09-07T08:50:02.417Z,1018.4
2022-09-07T08:51:02.224Z,1018.3
2022-09-07T08:52:02.068Z,1018.4
2022-09-07T08:53:01.901Z,1018.4
2022-09-07T08:54:02.769Z,1018.4
2022-09-07T08:55:02.620Z,1018.4
2022-09-07T08:56:02.490Z,1018.4
2022-09-07T08:57:23.351Z,1018.3
2022-09-07T08:58:02.199Z,1018.3
2022-09-07T08:59:02.060Z,1018.3
2022-09-07T09:00:01.925Z,1018.4
2022-09-07T09:01:33.313Z,1018.3
2022-09-07T09:02:44.469Z,1018.4
2022-09-07T09:05:19.901Z,1018.5
2022-09-07T09:06:02.208Z,1018.4
2022-09-07T09:06:12.006Z,1018.4
2022-09-07T09:06:13.005Z,1018.3
2022-09-07T09:07:02.747Z,1018.5
2022-09-07T09:08:02.719Z,1018.4
2022-09-07T09:09:02.522Z,1018.5
2022-09-07T09:10:02.427Z,1018.4
2022-09-07T09:11:02.409Z,1018.4
2022-09-07T09:12:02.246Z,1018.3
2022-09-07T09:13:02.173Z,1018.4
2022-09-07T09:14:01.981Z,1018.3
2022-09-07T09:15:01.945Z,1018.3
2022-09-07T09:16:02.857Z,1018.3
2022-09-07T09:17:02.737Z,1018.3
2022-09-07T09:18:02.662Z,1018.2
2022-09-07T09:19:02.474Z,1018.3
2022-09-07T09:20:02.506Z,1018.3
2022-09-07T09:21:02.410Z,1018.2
2022-09-07T09:22:02.238Z,1018.2
2022-09-07T09:23:02.157Z,1018.3
2022-09-07T09:24:01.916Z,1018.3
2022-09-07T09:25:01.935Z,1018.2
2022-09-07T09:26:02.858Z,1018.2
2022-09-07T09:27:02.675Z,1018.2
2022-09-07T09:28:02.692Z,1018.2
2022-09-07T09:29:02.619Z,1018.2
2022-09-07T09:30:02.434Z,1018.3
2022-09-07T09:31:02.411Z,1018.2
2022-09-07T09:32:02.349Z,1018.2
2022-09-07T09:33:02.297Z,1018.2
2022-09-07T09:34:02.134Z,1018.2
2022-09-07T09:35:02.038Z,1018.2
2022-09-07T09:36:01.843Z,1018.2
2022-09-07T09:37:02.859Z,1018.2
2022-09-07T09:38:02.661Z,1018.2
2022-09-07T09:39:02.636Z,1018.2
2022-09-07T09:40:03.881Z,1018.2
2022-09-07T09:41:02.757Z,1018.3
2022-09-07T09:42:02.714Z,1018.2
2022-09-07T09:43:02.512Z,1018.1
2022-09-07T09:44:02.505Z,1018.2
2022-09-07T09:45:02.470Z,1018.2
2022-09-07T09:46:14.924Z,1018.1
2022-09-07T09:47:32.496Z,1018.2
2022-09-07T09:48:02.709Z,1018.2
2022-09-07T09:49:02.645Z,1018.2
2022-09-07T09:50:02.553Z,1018.2
2022-09-07T09:52:34.932Z,1018.1
2022-09-07T09:52:51.012Z,1018.2
2022-09-07T09:53:02.462Z,1018.2
2022-09-07T09:54:02.459Z,1018.1
2022-09-07T09:55:36.612Z,1018.1
2022-09-07T09:56:02.566Z,1018.1
2022-09-07T09:57:02.518Z,1018.1
2022-09-07T09:59:06.006Z,1018.1
2022-09-07T09:59:59.324Z,1018.1
2022-09-07T10:00:14.910Z,1018.1
2022-09-07T10:01:28.127Z,1018.1
2022-09-07T10:04:17.515Z,1018.1
2022-09-07T10:05:02.538Z,1018.1
2022-09-07T10:06:02.460Z,1018.1
2022-09-07T10:07:02.275Z,1018.1
2022-09-07T10:08:02.264Z,1018.1
2022-09-07T10:09:02.537Z,1018
2022-09-07T10:10:02.399Z,1018
2022-09-07T10:11:02.324Z,1018
2022-09-07T10:12:09.315Z,1018
2022-09-07T10:13:02.130Z,1018
2022-09-07T10:14:02.067Z,1018
2022-09-07T10:15:02.803Z,1018
2022-09-07T10:16:02.829Z,1018
2022-09-07T10:17:02.914Z,1018
2022-09-07T10:18:02.754Z,1018
2022-09-07T10:19:02.721Z,1018
2022-09-07T10:20:02.581Z,1017.9
2022-09-07T10:21:02.557Z,1017.9
2022-09-07T10:22:02.496Z,1018
2022-09-07T10:23:02.336Z,1018
2022-09-07T10:24:02.265Z,1018
2022-09-07T10:25:02.091Z,1017.9
2022-09-07T10:26:02.045Z,1018
2022-09-07T10:27:01.857Z,1018
2022-09-07T10:28:02.848Z,1018
2022-09-07T10:29:10.203Z,1018
2022-09-07T10:30:02.190Z,1018
2022-09-07T10:31:02.325Z,1017.9
2022-09-07T10:32:02.322Z,1018
2022-09-07T10:33:02.157Z,1017.9
2022-09-07T10:34:27.830Z,1018
2022-09-07T10:35:02.967Z,1017.9
2022-09-07T10:36:01.901Z,1018
2022-09-07T10:37:02.841Z,1017.9
2022-09-07T10:38:02.652Z,1018
2022-09-07T10:39:02.629Z,1017.9
2022-09-07T10:40:02.683Z,1017.9
2022-09-07T10:41:02.520Z,1017.9
2022-09-07T10:42:02.522Z,1017.9
2022-09-07T10:43:23.720Z,1017.9
2022-09-07T10:44:03.422Z,1017.8
2022-09-07T10:45:02.353Z,1017.9
2022-09-07T10:46:03.135Z,1017.9
2022-09-07T10:47:02.225Z,1017.9
2022-09-07T10:48:02.232Z,1017.9
2022-09-07T10:49:02.065Z,1017.9
2022-09-07T10:50:24.554Z,1017.8
2022-09-07T10:51:14.801Z,1017.8
2022-09-07T10:52:02.639Z,1017.9
2022-09-07T10:54:29.321Z,1017.8
2022-09-07T10:54:32.291Z,1017.8
2022-09-07T10:55:02.458Z,1017.8
2022-09-07T10:56:02.383Z,1017.9
2022-09-07T10:57:02.290Z,1017.8
2022-09-07T10:58:02.059Z,1017.8
2022-09-07T10:59:04.672Z,1017.8
2022-09-07T11:00:10.905Z,1017.8
2022-09-07T11:01:02.792Z,1017.8
2022-09-07T11:02:02.655Z,1017.8
2022-09-07T11:03:28.429Z,1017.7
2022-09-07T11:04:02.482Z,1017.7
2022-09-07T11:05:02.412Z,1017.7
2022-09-07T11:06:02.360Z,1017.7
2022-09-07T11:07:02.154Z,1017.8
2022-09-07T11:08:02.137Z,1017.7
2022-09-07T11:09:20.353Z,1017.7
2022-09-07T11:10:02.267Z,1017.7
2022-09-07T11:11:02.254Z,1017.7
2022-09-07T11:12:04.592Z,1017.8
2022-09-07T11:13:02.507Z,1017.7
2022-09-07T11:14:14.103Z,1017.7
2022-09-07T11:15:01.890Z,1017.7
2022-09-07T11:16:02.934Z,1017.7
2022-09-07T11:17:02.193Z,1017.7
2022-09-07T11:18:02.054Z,1017.8
2022-09-07T11:19:37.592Z,1017.7
2022-09-07T11:20:02.827Z,1017.8
2022-09-07T11:21:02.664Z,1017.7
2022-09-07T11:22:02.622Z,1017.7
2022-09-07T11:23:02.533Z,1017.7
2022-09-07T11:24:02.364Z,1017.7
2022-09-07T11:25:31.403Z,1017.8
2022-09-07T11:26:02.379Z,1017.7
2022-09-07T11:27:02.155Z,1017.7
2022-09-07T11:28:02.085Z,1017.7
2022-09-07T11:29:30.692Z,1017.7
2022-09-07T11:30:02.531Z,1017.7
2022-09-07T11:31:02.418Z,1017.7
2022-09-07T11:32:02.341Z,1017.6
2022-09-07T11:33:02.224Z,1017.6
2022-09-07T11:34:26.127Z,1017.6
2022-09-07T11:35:01.913Z,1017.6
2022-09-07T11:36:01.932Z,1017.6
2022-09-07T11:37:02.849Z,1017.6
2022-09-07T11:38:02.683Z,1017.6
2022-09-07T11:39:02.615Z,1017.6
2022-09-07T11:40:02.703Z,1017.5
2022-09-07T11:41:02.582Z,1017.6
2022-09-07T11:42:44.474Z,1017.6
2022-09-07T11:43:02.482Z,1017.5
2022-09-07T11:44:02.338Z,1017.5
2022-09-07T11:45:02.259Z,1017.6
2022-09-07T11:46:02.334Z,1017.5
2022-09-07T11:47:02.182Z,1017.5
2022-09-07T11:48:02.130Z,1017.5
2022-09-07T11:49:05.090Z,1017.5
2022-09-07T11:50:01.854Z,1017.5
2022-09-07T11:51:02.855Z,1017.5
2022-09-07T11:52:06.130Z,1017.5
2022-09-07T11:53:01.911Z,1017.5
2022-09-07T11:54:01.910Z,1017.5
2022-09-07T11:55:02.844Z,1017.5
2022-09-07T11:56:02.637Z,1017.5
2022-09-07T11:57:02.628Z,1017.5
2022-09-07T11:58:02.547Z,1017.5
2022-09-07T11:59:02.330Z,1017.5
2022-09-07T12:00:02.335Z,1017.4
2022-09-07T12:01:01.964Z,1017.4
2022-09-07T12:02:01.928Z,1017.4
2022-09-07T12:03:03.202Z,1017.4
2022-09-07T12:04:02.435Z,1017.5
2022-09-07T12:05:02.626Z,1017.5
2022-09-07T12:06:02.623Z,1017.5
2022-09-07T12:07:02.444Z,1017.4
2022-09-07T12:08:02.423Z,1017.4
2022-09-07T12:09:02.358Z,1017.4
2022-09-07T12:10:02.166Z,1017.4
2022-09-07T12:11:02.057Z,1017.4
2022-09-07T12:12:01.875Z,1017.4
2022-09-07T12:13:02.848Z,1017.4
2022-09-07T12:14:02.655Z,1017.4
2022-09-07T12:15:02.616Z,1017.4
2022-09-07T12:16:02.127Z,1017.4
2022-09-07T12:17:02.068Z,1017.3
2022-09-07T12:18:01.892Z,1017.4
2022-09-07T12:19:02.850Z,1017.3
2022-09-07T12:20:02.671Z,1017.3
2022-09-07T12:21:02.691Z,1017.3
2022-09-07T12:22:02.530Z,1017.3
2022-09-07T12:23:06.095Z,1017.3
2022-09-07T12:24:01.852Z,1017.3
2022-09-07T12:25:02.888Z,1017.2
2022-09-07T12:26:02.761Z,1017.2
2022-09-07T12:27:02.675Z,1017.2
2022-09-07T12:28:02.522Z,1017.3
2022-09-07T12:29:02.453Z,1017.3
2022-09-07T12:30:02.399Z,1017.3
2022-09-07T12:31:02.347Z,1017.2
2022-09-07T12:32:56.810Z,1017.2
2022-09-07T12:33:03.125Z,1017.3
2022-09-07T12:34:01.907Z,1017.2
2022-09-07T12:35:01.804Z,1017.2